sensor_id;sensor_type;location;lat;lon;timestamp;pressure;altitude;pressure_sealevel;temperature;humidity
54978;BME280;40873;47.522;19.106;2023-03-03T09:55:18;100498.72;;;10.43;77.55
54978;BME280;40873;47.522;19.106;2023-03-03T10:06:03;100492.34;;;10.61;75.38
54978;BME280;40873;47.522;19.106;2023-03-03T10:25:06;100470.09;;;11.67;69.45
54978;BME280;40873;47.522;19.106;2023-03-03T10:44:48;100457.91;;;11.93;66.97
54978;BME280;40873;47.522;19.106;2023-03-03T10:47:33;100453.63;;;12.84;64.34
54978;BME280;40873;47.522;19.106;2023-03-03T10:50:44;100453.22;;;13.15;63.44
54978;BME280;40873;47.522;19.106;2023-03-03T10:53:40;100446.88;;;13.43;60.67
54978;BME280;40873;47.522;19.106;2023-03-03T10:56:44;100445.75;;;13.71;61.17
54978;BME280;40873;47.522;19.106;2023-03-03T10:59:43;100436.81;;;13.36;62.00
54978;BME280;40873;47.522;19.106;2023-03-03T11:05:24;100433.38;;;13.59;60.21
54978;BME280;40873;47.522;19.106;2023-03-03T11:08:26;100443.88;;;14.21;58.86
54978;BME280;40873;47.522;19.106;2023-03-03T11:13:55;100427.69;;;12.89;61.99
54978;BME280;40873;47.522;19.106;2023-03-03T11:25:26;100410.75;;;13.30;60.13
54978;BME280;40873;47.522;19.106;2023-03-03T11:33:24;100396.66;;;13.29;60.30
54978;BME280;40873;47.522;19.106;2023-03-03T11:44:28;100387.06;;;14.24;57.48
54978;BME280;40873;47.522;19.106;2023-03-03T11:47:15;100392.78;;;14.07;57.79
54978;BME280;40873;47.522;19.106;2023-03-03T11:49:52;100380.22;;;14.57;55.80
54978;BME280;40873;47.522;19.106;2023-03-03T11:55:16;100379.19;;;14.82;55.29
54978;BME280;40873;47.522;19.106;2023-03-03T11:57:53;100370.00;;;15.19;54.64
54978;BME280;40873;47.522;19.106;2023-03-03T12:00:51;100370.94;;;14.27;56.29
54978;BME280;40873;47.522;19.106;2023-03-03T12:26:09;100352.84;;;14.78;56.00
54978;BME280;40873;47.522;19.106;2023-03-03T12:28:52;100347.38;;;15.47;53.54
54978;BME280;40873;47.522;19.106;2023-03-03T12:34:18;100341.13;;;14.92;55.43
54978;BME280;40873;47.522;19.106;2023-03-03T12:39:44;100349.78;;;14.49;55.88
54978;BME280;40873;47.522;19.106;2023-03-03T12:55:47;100349.09;;;13.76;55.58
54978;BME280;40873;47.522;19.106;2023-03-03T13:06:59;100338.94;;;12.45;60.66
54978;BME280;40873;47.522;19.106;2023-03-03T13:15:03;100327.06;;;12.63;58.12
54978;BME280;40873;47.522;19.106;2023-03-03T13:17:39;100335.19;;;13.11;57.40
54978;BME280;40873;47.522;19.106;2023-03-03T13:20:29;100331.16;;;13.18;54.24
54978;BME280;40873;47.522;19.106;2023-03-03T13:23:11;100326.13;;;12.90;54.93
54978;BME280;40873;47.522;19.106;2023-03-03T13:26:06;100332.47;;;12.62;58.40
54978;BME280;40873;47.522;19.106;2023-03-03T13:28:40;100319.75;;;12.93;59.76
54978;BME280;40873;47.522;19.106;2023-03-03T13:31:18;100320.81;;;12.90;61.03
54978;BME280;40873;47.522;19.106;2023-03-03T13:33:53;100313.72;;;12.90;60.29
54978;BME280;40873;47.522;19.106;2023-03-03T13:39:22;100314.06;;;12.73;55.17
54978;BME280;40873;47.522;19.106;2023-03-03T13:42:05;100313.22;;;12.47;56.57
54978;BME280;40873;47.522;19.106;2023-03-03T13:44:41;100310.88;;;12.43;55.28
54978;BME280;40873;47.522;19.106;2023-03-03T13:47:12;100303.47;;;12.48;54.92
54978;BME280;40873;47.522;19.106;2023-03-03T13:50:12;100311.09;;;12.40;55.50
54978;BME280;40873;47.522;19.106;2023-03-03T13:52:53;100303.78;;;12.56;54.42
54978;BME280;40873;47.522;19.106;2023-03-03T13:58:36;100310.44;;;12.36;53.51
54978;BME280;40873;47.522;19.106;2023-03-03T14:01:32;100309.59;;;12.35;53.36
54978;BME280;40873;47.522;19.106;2023-03-03T14:06:30;100296.31;;;12.99;51.58
54978;BME280;40873;47.522;19.106;2023-03-03T14:09:11;100305.78;;;12.90;51.89
54978;BME280;40873;47.522;19.106;2023-03-03T14:18:02;100292.53;;;12.90;53.23
54978;BME280;40873;47.522;19.106;2023-03-03T14:20:42;100291.72;;;12.77;53.08
54978;BME280;40873;47.522;19.106;2023-03-03T14:23:26;100291.81;;;12.76;53.00
54978;BME280;40873;47.522;19.106;2023-03-03T14:28:47;100288.66;;;12.58;53.78
54978;BME280;40873;47.522;19.106;2023-03-03T14:31:22;100283.16;;;12.48;53.48
54978;BME280;40873;47.522;19.106;2023-03-03T14:34:34;100282.94;;;12.64;53.35
54978;BME280;40873;47.522;19.106;2023-03-03T14:42:54;100277.31;;;12.30;53.62
54978;BME280;40873;47.522;19.106;2023-03-03T14:45:39;100286.03;;;12.45;53.84
54978;BME280;40873;47.522;19.106;2023-03-03T14:48:16;100289.19;;;12.76;52.94
54978;BME280;40873;47.522;19.106;2023-03-03T14:50:56;100285.16;;;12.57;52.73
54978;BME280;40873;47.522;19.106;2023-03-03T14:53:33;100283.88;;;12.50;52.76
54978;BME280;40873;47.522;19.106;2023-03-03T14:58:41;100278.09;;;12.32;53.90
54978;BME280;40873;47.522;19.106;2023-03-03T15:01:34;100279.13;;;12.17;53.60
54978;BME280;40873;47.522;19.106;2023-03-03T15:06:45;100285.84;;;11.83;54.55
54978;BME280;40873;47.522;19.106;2023-03-03T15:11:59;100288.41;;;11.70;55.52
54978;BME280;40873;47.522;19.106;2023-03-03T15:14:43;100293.25;;;11.91;55.15
54978;BME280;40873;47.522;19.106;2023-03-03T15:17:28;100289.81;;;11.76;54.91
54978;BME280;40873;47.522;19.106;2023-03-03T15:22:51;100290.72;;;11.75;55.71
54978;BME280;40873;47.522;19.106;2023-03-03T15:25:32;100299.94;;;11.69;56.15
54978;BME280;40873;47.522;19.106;2023-03-03T15:34:02;100299.09;;;11.69;54.49
54978;BME280;40873;47.522;19.106;2023-03-03T15:36:34;100296.59;;;11.53;55.15
54978;BME280;40873;47.522;19.106;2023-03-03T15:39:24;100303.53;;;11.41;55.80
54978;BME280;40873;47.522;19.106;2023-03-03T15:44:58;100301.03;;;11.11;56.42
54978;BME280;40873;47.522;19.106;2023-03-03T15:53:50;100310.97;;;10.93;56.43
54978;BME280;40873;47.522;19.106;2023-03-03T15:56:39;100308.72;;;10.73;56.58
54978;BME280;40873;47.522;19.106;2023-03-03T15:59:53;100318.22;;;10.61;56.87
54978;BME280;40873;47.522;19.106;2023-03-03T16:02:18;100322.38;;;10.51;56.89
54978;BME280;40873;47.522;19.106;2023-03-03T16:04:56;100321.44;;;10.52;57.50
54978;BME280;40873;47.522;19.106;2023-03-03T16:07:38;100325.16;;;10.34;56.78
54978;BME280;40873;47.522;19.106;2023-03-03T16:16:01;100336.19;;;10.10;58.58
54978;BME280;40873;47.522;19.106;2023-03-03T16:27:20;100339.59;;;9.82;59.06
54978;BME280;40873;47.522;19.106;2023-03-03T16:32:40;100340.13;;;9.57;59.98
54978;BME280;40873;47.522;19.106;2023-03-03T16:35:32;100343.19;;;9.50;59.92
54978;BME280;40873;47.522;19.106;2023-03-03T16:38:10;100346.44;;;9.39;60.57
54978;BME280;40873;47.522;19.106;2023-03-03T16:40:54;100352.88;;;9.33;60.32
54978;BME280;40873;47.522;19.106;2023-03-03T16:51:37;100358.28;;;9.15;62.48
54978;BME280;40873;47.522;19.106;2023-03-03T16:57:01;100356.94;;;9.07;62.50
54978;BME280;40873;47.522;19.106;2023-03-03T16:59:34;100357.63;;;9.11;61.21
54978;BME280;40873;47.522;19.106;2023-03-03T17:02:31;100366.69;;;9.05;60.80
54978;BME280;40873;47.522;19.106;2023-03-03T17:07:43;100366.91;;;8.85;61.78
54978;BME280;40873;47.522;19.106;2023-03-03T17:10:27;100368.31;;;8.75;61.99
54978;BME280;40873;47.522;19.106;2023-03-03T17:13:37;100363.44;;;8.67;62.12
54978;BME280;40873;47.522;19.106;2023-03-03T17:33:06;100370.38;;;8.35;63.09
54978;BME280;40873;47.522;19.106;2023-03-03T17:41:10;100379.91;;;8.19;62.96
54978;BME280;40873;47.522;19.106;2023-03-03T17:44:07;100370.53;;;8.13;62.89
54978;BME280;40873;47.522;19.106;2023-03-03T17:46:53;100376.97;;;8.08;63.80
54978;BME280;40873;47.522;19.106;2023-03-03T17:57:30;100377.41;;;7.98;62.87
54978;BME280;40873;47.522;19.106;2023-03-03T18:22:51;100385.19;;;7.65;64.62
54978;BME280;40873;47.522;19.106;2023-03-03T18:25:50;100395.97;;;7.59;65.43
54978;BME280;40873;47.522;19.106;2023-03-03T18:28:42;100395.53;;;7.50;65.56
54978;BME280;40873;47.522;19.106;2023-03-03T18:31:02;100392.41;;;7.41;66.21
54978;BME280;40873;47.522;19.106;2023-03-03T18:38:44;100375.00;;;7.77;64.57
54978;BME280;40873;47.522;19.106;2023-03-03T18:41:30;100380.22;;;7.59;65.03
54978;BME280;40873;47.522;19.106;2023-03-03T18:44:28;100377.88;;;7.53;64.81
54978;BME280;40873;47.522;19.106;2023-03-03T18:46:56;100381.56;;;7.49;65.22
54978;BME280;40873;47.522;19.106;2023-03-03T18:54:59;100384.09;;;7.51;65.09
54978;BME280;40873;47.522;19.106;2023-03-03T18:57:27;100394.75;;;7.48;65.09
54978;BME280;40873;47.522;19.106;2023-03-03T19:00:13;100387.38;;;7.56;63.91
54978;BME280;40873;47.522;19.106;2023-03-03T19:02:51;100389.09;;;7.38;64.74
54978;BME280;40873;47.522;19.106;2023-03-03T19:06:08;100390.00;;;7.37;64.34
54978;BME280;40873;47.522;19.106;2023-03-03T19:08:24;100390.00;;;7.37;64.25
54978;BME280;40873;47.522;19.106;2023-03-03T19:21:19;100391.69;;;7.57;60.18
54978;BME280;40873;47.522;19.106;2023-03-03T19:24:03;100397.09;;;7.54;60.37
54978;BME280;40873;47.522;19.106;2023-03-03T19:29:28;100405.19;;;7.49;60.80
54978;BME280;40873;47.522;19.106;2023-03-03T19:35:26;100408.72;;;7.48;60.48
54978;BME280;40873;47.522;19.106;2023-03-03T19:38:10;100416.81;;;7.43;60.56
54978;BME280;40873;47.522;19.106;2023-03-03T19:40:51;100416.59;;;7.29;61.04
54978;BME280;40873;47.522;19.106;2023-03-03T19:49:33;100413.91;;;7.12;62.24
54978;BME280;40873;47.522;19.106;2023-03-03T20:00:38;100420.56;;;6.80;63.41
54978;BME280;40873;47.522;19.106;2023-03-03T20:14:42;100436.84;;;6.47;64.07
54978;BME280;40873;47.522;19.106;2023-03-03T20:20:03;100429.59;;;6.32;65.10
54978;BME280;40873;47.522;19.106;2023-03-03T20:31:16;100430.59;;;6.08;64.52
54978;BME280;40873;47.522;19.106;2023-03-03T20:37:07;100434.75;;;6.13;64.37
54978;BME280;40873;47.522;19.106;2023-03-03T20:43:06;100429.22;;;5.99;65.51
54978;BME280;40873;47.522;19.106;2023-03-03T20:45:29;100427.84;;;5.89;64.84
54978;BME280;40873;47.522;19.106;2023-03-03T20:48:06;100426.59;;;5.75;65.96
54978;BME280;40873;47.522;19.106;2023-03-03T20:50:52;100427.34;;;5.79;65.85
54978;BME280;40873;47.522;19.106;2023-03-03T20:53:39;100423.03;;;5.78;65.43
54978;BME280;40873;47.522;19.106;2023-03-03T21:01:42;100426.28;;;5.61;65.80
54978;BME280;40873;47.522;19.106;2023-03-03T21:04:28;100428.97;;;5.60;66.28
54978;BME280;40873;47.522;19.106;2023-03-03T21:06:56;100423.91;;;5.55;66.50
54978;BME280;40873;47.522;19.106;2023-03-03T21:09:25;100433.59;;;5.53;67.12
54978;BME280;40873;47.522;19.106;2023-03-03T21:11:53;100433.81;;;5.47;68.58
54978;BME280;40873;47.522;19.106;2023-03-03T21:14:27;100429.44;;;5.47;69.64
54978;BME280;40873;47.522;19.106;2023-03-03T21:16:57;100436.44;;;5.47;69.53
54978;BME280;40873;47.522;19.106;2023-03-03T21:19:33;100428.78;;;5.19;70.59
54978;BME280;40873;47.522;19.106;2023-03-03T21:22:02;100432.44;;;5.15;70.16
54978;BME280;40873;47.522;19.106;2023-03-03T21:24:51;100426.66;;;5.05;72.27
54978;BME280;40873;47.522;19.106;2023-03-03T21:27:28;100427.72;;;5.00;71.98
54978;BME280;40873;47.522;19.106;2023-03-03T21:35:08;100434.53;;;4.80;73.70
54978;BME280;40873;47.522;19.106;2023-03-03T21:37:50;100433.53;;;4.59;74.87
54978;BME280;40873;47.522;19.106;2023-03-03T21:40:21;100440.03;;;4.48;75.29
54978;BME280;40873;47.522;19.106;2023-03-03T21:42:52;100438.53;;;4.40;75.66
54978;BME280;40873;47.522;19.106;2023-03-03T21:45:20;100442.31;;;4.30;76.72
54978;BME280;40873;47.522;19.106;2023-03-03T21:47:47;100436.06;;;4.36;76.80
54978;BME280;40873;47.522;19.106;2023-03-03T21:50:16;100443.28;;;4.28;77.56
54978;BME280;40873;47.522;19.106;2023-03-03T21:52:43;100438.53;;;4.14;77.38
54978;BME280;40873;47.522;19.106;2023-03-03T21:55:10;100433.25;;;4.16;77.59
54978;BME280;40873;47.522;19.106;2023-03-03T21:57:37;100437.88;;;4.07;78.29
54978;BME280;40873;47.522;19.106;2023-03-03T22:00:06;100440.47;;;4.07;79.23
54978;BME280;40873;47.522;19.106;2023-03-03T22:02:33;100436.94;;;4.08;79.05
54978;BME280;40873;47.522;19.106;2023-03-03T22:05:01;100434.69;;;3.98;79.65
54978;BME280;40873;47.522;19.106;2023-03-03T22:07:29;100438.81;;;4.05;79.61
54978;BME280;40873;47.522;19.106;2023-03-03T22:09:56;100442.06;;;3.85;80.64
54978;BME280;40873;47.522;19.106;2023-03-03T22:12:23;100441.34;;;3.80;81.11
54978;BME280;40873;47.522;19.106;2023-03-03T22:14:50;100445.66;;;3.81;81.47
54978;BME280;40873;47.522;19.106;2023-03-03T22:17:17;100443.81;;;3.84;81.41
54978;BME280;40873;47.522;19.106;2023-03-03T22:19:44;100444.56;;;3.88;81.65
54978;BME280;40873;47.522;19.106;2023-03-03T22:22:11;100447.22;;;3.87;81.38
54978;BME280;40873;47.522;19.106;2023-03-03T22:24:40;100444.19;;;3.72;82.56
54978;BME280;40873;47.522;19.106;2023-03-03T22:27:07;100447.75;;;3.70;82.59
54978;BME280;40873;47.522;19.106;2023-03-03T22:29:34;100452.31;;;3.63;83.05
54978;BME280;40873;47.522;19.106;2023-03-03T22:32:01;100455.91;;;3.59;83.78
54978;BME280;40873;47.522;19.106;2023-03-03T22:34:29;100452.94;;;3.42;84.71
54978;BME280;40873;47.522;19.106;2023-03-03T22:36:56;100447.88;;;3.65;84.05
54978;BME280;40873;47.522;19.106;2023-03-03T22:39:23;100449.28;;;3.47;84.83
54978;BME280;40873;47.522;19.106;2023-03-03T22:41:52;100453.41;;;3.25;85.92
54978;BME280;40873;47.522;19.106;2023-03-03T22:44:19;100459.53;;;3.24;86.78
54978;BME280;40873;47.522;19.106;2023-03-03T22:46:46;100469.84;;;3.28;86.34
54978;BME280;40873;47.522;19.106;2023-03-03T22:49:13;100466.38;;;3.28;86.82
54978;BME280;40873;47.522;19.106;2023-03-03T22:51:40;100466.63;;;3.19;88.11
54978;BME280;40873;47.522;19.106;2023-03-03T22:54:07;100467.63;;;3.15;88.44
54978;BME280;40873;47.522;19.106;2023-03-03T22:56:34;100468.31;;;3.20;88.76
54978;BME280;40873;47.522;19.106;2023-03-03T22:59:01;100460.25;;;2.99;90.76
54978;BME280;40873;47.522;19.106;2023-03-03T23:01:28;100452.28;;;3.04;90.71
54978;BME280;40873;47.522;19.106;2023-03-03T23:03:55;100458.75;;;2.89;91.17
54978;BME280;40873;47.522;19.106;2023-03-03T23:06:22;100446.31;;;2.99;91.96
54978;BME280;40873;47.522;19.106;2023-03-03T23:08:49;100449.81;;;2.99;91.38
54978;BME280;40873;47.522;19.106;2023-03-03T23:11:16;100447.75;;;3.11;91.06
54978;BME280;40873;47.522;19.106;2023-03-03T23:13:43;100449.50;;;3.10;91.14
54978;BME280;40873;47.522;19.106;2023-03-03T23:16:10;100446.03;;;3.10;91.04
54978;BME280;40873;47.522;19.106;2023-03-03T23:18:38;100441.84;;;3.04;91.54
54978;BME280;40873;47.522;19.106;2023-03-03T23:21:04;100439.56;;;2.93;92.44
54978;BME280;40873;47.522;19.106;2023-03-03T23:23:31;100441.91;;;3.02;92.53
54978;BME280;40873;47.522;19.106;2023-03-03T23:25:58;100443.78;;;2.97;92.37
54978;BME280;40873;47.522;19.106;2023-03-03T23:28:25;100440.19;;;3.01;92.83
54978;BME280;40873;47.522;19.106;2023-03-03T23:30:52;100439.41;;;2.98;93.48
54978;BME280;40873;47.522;19.106;2023-03-03T23:33:19;100453.81;;;2.80;93.99
54978;BME280;40873;47.522;19.106;2023-03-03T23:35:46;100453.81;;;2.80;93.64
54978;BME280;40873;47.522;19.106;2023-03-03T23:38:15;100455.84;;;2.69;94.26
54978;BME280;40873;47.522;19.106;2023-03-03T23:40:43;100454.28;;;2.62;94.72
54978;BME280;40873;47.522;19.106;2023-03-03T23:43:13;100450.97;;;2.55;95.20
54978;BME280;40873;47.522;19.106;2023-03-03T23:45:40;100442.31;;;2.55;95.36
54978;BME280;40873;47.522;19.106;2023-03-03T23:48:07;100448.16;;;2.64;95.50
54978;BME280;40873;47.522;19.106;2023-03-03T23:50:34;100444.97;;;2.53;96.12
54978;BME280;40873;47.522;19.106;2023-03-03T23:53:06;100442.06;;;2.64;96.15
54978;BME280;40873;47.522;19.106;2023-03-03T23:55:33;100441.56;;;2.50;96.55
54978;BME280;40873;47.522;19.106;2023-03-03T23:58:02;100446.97;;;2.42;96.36
